Time;durP1;ratioP1;P1;durP2;ratioP2;P2;SDS_P1;SDS_P2;PMS_P1;PMS_P2;Temp;Humidity;BMP_temperature;BMP_pressure;BME280_temperature;BME280_humidity;BME280_pressure;Samples;Min_cycle;Max_cycle;Signal;HPM_P1;HPM_P2
2021/09/25 00:00:49;;;;;;;;;;;;;;;23.71;50.37;101558.97;5122022;28;19972;-82
2021/09/25 00:03:14;;;;;;;;;;;;;;;23.95;49.92;101559.66;5122349;28;19915;-83
2021/09/25 00:05:40;;;;;;;;;;;;;;;24.47;48.87;101556.63;5139752;27;19919;-83
2021/09/25 00:08:05;;;;;;;;;;;;;;;24.94;46.75;101551.16;5140283;27;19998;-83
2021/09/25 00:10:31;;;;;;;;;;;;;;;23.61;50.92;101555.34;5121295;28;19937;-83
2021/09/25 00:12:57;;;;;;;;;;;;;;;24.35;49.01;101551.25;5122194;28;19956;-83
2021/09/25 00:15:23;;;;;;;;;;;;;;;24.64;48.63;101549.47;5121247;28;19916;-82
2021/09/25 00:17:48;;;;;;;;;;;;;;;23.97;50.42;101552.09;5121885;28;19937;-83
2021/09/25 00:20:15;;;;;;;;;;;;;;;24.25;49.61;101550.38;5121550;28;19922;-83
2021/09/25 00:22:41;;;;;;;;;;;;;;;25.02;47.60;101545.75;5139575;28;19920;-82
2021/09/25 00:25:06;;;;;;;;;;;;;;;25.29;46.28;101547.72;5121138;28;19976;-83
2021/09/25 00:27:32;;;;;;;;;;;;;;;24.87;47.88;101550.03;5120764;28;19919;-83
2021/09/25 00:29:57;;;;;;;;;;;;;;;25.06;47.28;101541.66;5122175;28;20384;-83
2021/09/25 00:32:22;;;;;;;;;;;;;;;23.91;50.61;101553.53;5121404;28;19945;-84
2021/09/25 00:34:48;;;;;;;;;;;;;;;23.48;52.33;101551.97;5121932;28;19993;-83
2021/09/25 00:37:13;;;;;;;;;;;;;;;24.03;51.35;101546.84;5121663;28;19916;-83
2021/09/25 00:39:38;;;;;;;;;;;;;;;23.52;52.71;101550.63;5140950;28;20322;-83
2021/09/25 00:42:04;;;;;;;;;;;;;;;23.69;51.88;101552.75;5141272;28;20380;-81
2021/09/25 00:44:29;;;;;;;;;;;;;;;24.25;50.04;101550.38;5124765;28;19982;-84
2021/09/25 00:46:56;;;;;;;;;;;;;;;23.74;51.50;101551.44;5125956;28;19916;-83
2021/09/25 00:49:21;;;;;;;;;;;;;;;24.11;50.57;101554.44;5125309;28;20396;-83
2021/09/25 00:51:47;;;;;;;;;;;;;;;23.99;50.50;101553.72;5141210;28;19919;-83
2021/09/25 00:54:12;;;;;;;;;;;;;;;23.62;50.65;101559.84;5122605;28;19919;-82
2021/09/25 00:56:38;;;;;;;;;;;;;;;23.62;51.37;101558.97;5121962;28;19922;-83
2021/09/25 00:59:04;;;;;;;;;;;;;;;23.76;51.49;101561.31;5120201;28;19915;-83
2021/09/25 01:01:30;;;;;;;;;;;;;;;24.77;48.42;101562.00;5121397;28;20230;-82
2021/09/25 01:03:55;;;;;;;;;;;;;;;24.13;49.82;101563.47;5121738;28;20006;-83
2021/09/25 01:06:20;;;;;;;;;;;;;;;23.28;51.81;101557.41;5139931;28;19920;-83
2021/09/25 01:08:45;;;;;;;;;;;;;;;23.64;50.64;101563.34;5121694;28;20364;-82
2021/09/25 01:11:11;;;;;;;;;;;;;;;24.25;49.55;101555.91;5121734;28;19923;-83
2021/09/25 01:13:36;;;;;;;;;;;;;;;23.45;51.33;101561.38;5121393;28;19922;-82
2021/09/25 01:16:01;;;;;;;;;;;;;;;24.57;48.33;101554.72;5121046;28;20002;-82
2021/09/25 01:18:27;;;;;;;;;;;;;;;23.50;51.29;101558.22;5140533;28;20006;-83
2021/09/25 01:20:52;;;;;;;;;;;;;;;23.84;50.25;101558.75;5122589;27;20268;-82
2021/09/25 01:23:17;;;;;;;;;;;;;;;23.96;50.53;101555.88;5125694;27;19915;-83
2021/09/25 01:25:42;;;;;;;;;;;;;;;24.04;49.64;101559.66;5143578;27;19923;-83
2021/09/25 01:28:08;;;;;;;;;;;;;;;23.19;51.41;101555.47;5125648;27;19916;-82
2021/09/25 01:30:33;;;;;;;;;;;;;;;24.04;49.78;101553.28;5125449;27;19923;-83
2021/09/25 01:33:00;;;;;;;;;;;;;;;24.04;50.03;101562.44;5124095;27;19923;-83
2021/09/25 01:35:26;;;;;;;;;;;;;;;23.62;51.67;101559.84;5125176;27;19922;-83
2021/09/25 01:37:52;;;;;;;;;;;;;;;23.92;50.69;101557.19;5125517;27;19954;-82
2021/09/25 01:40:18;;;;;;;;;;;;;;;24.18;49.54;101563.03;5143872;27;19919;-83
2021/09/25 01:42:43;;;;;;;;;;;;;;;23.57;51.66;101561.25;5142989;27;19943;-83
2021/09/25 01:45:09;;;;;;;;;;;;;;;24.24;49.36;101560.53;5124500;27;19920;-83
2021/09/25 01:47:34;;;;;;;;;;;;;;;24.28;49.16;101549.19;5124358;27;20006;-82
2021/09/25 01:50:01;;;;;;;;;;;;;;;24.32;49.42;101558.94;5124155;27;19919;-82
2021/09/25 01:52:26;;;;;;;;;;;;;;;24.61;48.51;101547.00;5124205;27;19959;-82
2021/09/25 01:54:52;;;;;;;;;;;;;;;23.13;53.11;101547.72;5124409;27;19949;-83
2021/09/25 01:57:17;;;;;;;;;;;;;;;23.70;51.71;101550.84;5124576;27;19922;-83
2021/09/25 01:59:43;;;;;;;;;;;;;;;24.12;50.58;101556.16;5143615;27;19915;-83
2021/09/25 02:02:09;;;;;;;;;;;;;;;23.95;50.84;101555.00;5143113;27;19982;-82
2021/09/25 02:04:35;;;;;;;;;;;;;;;24.56;49.38;101553.84;5124157;27;20465;-82
2021/09/25 02:07:00;;;;;;;;;;;;;;;25.08;47.66;101552.59;5124228;27;20262;-82
2021/09/25 02:09:25;;;;;;;;;;;;;;;24.89;47.92;101550.75;5142801;27;20006;-83
2021/09/25 02:11:51;;;;;;;;;;;;;;;24.74;48.02;101544.81;5125409;27;20432;-83
2021/09/25 02:14:16;;;;;;;;;;;;;;;23.76;51.56;101553.03;5124771;27;19921;-83
2021/09/25 02:16:41;;;;;;;;;;;;;;;24.46;49.50;101549.31;5124698;27;19916;-83
2021/09/25 02:19:06;;;;;;;;;;;;;;;23.89;50.92;101552.81;5124286;27;20004;-82
2021/09/25 02:21:32;;;;;;;;;;;;;;;23.77;51.31;101551.16;5124732;27;19918;-83
2021/09/25 02:23:57;;;;;;;;;;;;;;;23.46;52.82;101554.88;5124605;27;20365;-83
2021/09/25 02:26:22;;;;;;;;;;;;;;;24.03;50.53;101552.38;5123990;27;20010;-84
2021/09/25 02:28:47;;;;;;;;;;;;;;;23.53;52.30;101555.16;5123700;27;20293;-83
2021/09/25 02:31:13;;;;;;;;;;;;;;;23.41;53.29;101557.16;5123055;27;20391;-83
2021/09/25 02:33:38;;;;;;;;;;;;;;;24.29;50.59;101551.84;5123000;27;20265;-84
2021/09/25 02:36:04;;;;;;;;;;;;;;;23.77;51.06;101548.41;5141215;27;19918;-83
2021/09/25 02:38:29;;;;;;;;;;;;;;;24.35;50.21;101544.81;5122985;27;19922;-83
2021/09/25 02:40:55;;;;;;;;;;;;;;;24.43;49.60;101544.97;5141375;27;19919;-83
2021/09/25 02:43:20;;;;;;;;;;;;;;;24.40;49.94;101548.03;5122995;27;19920;-82
2021/09/25 02:45:45;;;;;;;;;;;;;;;24.62;49.44;101533.03;5123469;27;19919;-83
2021/09/25 02:48:11;;;;;;;;;;;;;;;23.25;53.42;101538.38;5123300;27;19922;-84
2021/09/25 02:50:37;;;;;;;;;;;;;;;24.30;50.45;101544.41;5123674;27;19915;-83
2021/09/25 02:53:02;;;;;;;;;;;;;;;24.99;47.83;101535.00;5122718;27;19912;-83
2021/09/25 02:55:27;;;;;;;;;;;;;;;24.05;51.03;101538.41;5123777;27;20322;-84
2021/09/25 02:57:52;;;;;;;;;;;;;;;23.57;52.01;101540.06;5142000;27;19923;-84
2021/09/25 03:00:19;;;;;;;;;;;;;;;24.47;49.63;101543.66;5122996;27;20343;-84
2021/09/25 03:02:45;;;;;;;;;;;;;;;24.00;50.97;101541.59;5141400;27;19911;-84
2021/09/25 03:05:10;;;;;;;;;;;;;;;24.53;49.05;101542.19;5123668;27;19919;-84
2021/09/25 03:07:35;;;;;;;;;;;;;;;24.01;50.51;101545.28;5123265;27;19923;-83
2021/09/25 03:10:01;;;;;;;;;;;;;;;24.30;49.64;101545.25;5122945;27;19988;-84
2021/09/25 03:12:26;;;;;;;;;;;;;;;23.86;50.82;101547.56;5123761;27;19960;-84
2021/09/25 03:14:51;;;;;;;;;;;;;;;24.04;50.47;101537.53;5123283;27;19923;-84
2021/09/25 03:17:16;;;;;;;;;;;;;;;24.87;48.13;101541.72;5122291;27;19916;-83
2021/09/25 03:19:42;;;;;;;;;;;;;;;25.04;47.81;101534.53;5123363;27;19916;-84
2021/09/25 03:22:07;;;;;;;;;;;;;;;23.25;52.31;101543.88;5123656;27;19922;-83
2021/09/25 03:24:33;;;;;;;;;;;;;;;24.06;51.24;101540.16;5122287;27;19927;-83
2021/09/25 03:26:58;;;;;;;;;;;;;;;23.81;51.46;101539.69;5122818;27;19920;-83
2021/09/25 03:29:23;;;;;;;;;;;;;;;23.97;51.54;101538.28;5140959;27;19922;-82
2021/09/25 03:31:49;;;;;;;;;;;;;;;24.01;50.93;101548.91;5123065;27;19923;-84
2021/09/25 03:34:15;;;;;;;;;;;;;;;24.12;51.63;101547.03;5122169;27;19915;-83
2021/09/25 03:36:41;;;;;;;;;;;;;;;23.46;53.73;101543.81;5122982;27;19919;-83
2021/09/25 03:39:06;;;;;;;;;;;;;;;24.12;51.31;101535.97;5122550;27;20262;-83
2021/09/25 03:41:31;;;;;;;;;;;;;;;23.68;52.81;101539.06;5140481;27;20333;-83
2021/09/25 03:43:57;;;;;;;;;;;;;;;24.29;51.15;101540.78;5121630;27;19951;-83
2021/09/25 03:46:22;;;;;;;;;;;;;;;23.92;52.13;101543.38;5122685;27;20022;-84
2021/09/25 03:48:47;;;;;;;;;;;;;;;24.32;51.09;101537.72;5141119;27;19915;-83
2021/09/25 03:51:13;;;;;;;;;;;;;;;24.23;51.35;101530.25;5121578;27;19916;-83
2021/09/25 03:53:39;;;;;;;;;;;;;;;24.64;50.46;101528.25;5122629;27;19916;-85
2021/09/25 03:56:07;;;;;;;;;;;;;;;23.88;52.21;101527.06;5141153;27;19986;-83
2021/09/25 03:58:36;;;;;;;;;;;;;;;24.03;52.34;101532.16;5141233;27;19923;-83
2021/09/25 04:01:02;;;;;;;;;;;;;;;23.44;54.23;101542.19;5123257;27;19916;-83
2021/09/25 04:03:27;;;;;;;;;;;;;;;24.05;52.31;101543.94;5122972;27;19920;-84
2021/09/25 04:05:54;;;;;;;;;;;;;;;25.69;47.52;101553.06;5123025;28;19951;-83
2021/09/25 04:08:19;;;;;;;;;;;;;;;25.31;48.44;101552.25;5124741;28;19923;-82
2021/09/25 04:10:44;;;;;;;;;;;;;;;24.80;50.09;101549.75;5126082;28;19899;-82
2021/09/25 04:13:11;;;;;;;;;;;;;;;24.73;50.23;101549.47;5124716;28;20016;-84
2021/09/25 04:15:36;;;;;;;;;;;;;;;24.96;49.81;101549.13;5141605;28;20348;-84
2021/09/25 04:18:02;;;;;;;;;;;;;;;24.59;50.91;101545.28;5122971;28;19959;-83
2021/09/25 04:20:27;;;;;;;;;;;;;;;23.72;53.61;101551.59;5141381;28;19968;-84
2021/09/25 04:22:52;;;;;;;;;;;;;;;24.64;51.54;101547.59;5142178;28;19926;-84
2021/09/25 04:25:19;;;;;;;;;;;;;;;24.67;51.00;101543.66;5140455;28;20356;-84
2021/09/25 04:27:49;;;;;;;;;;;;;;;25.09;49.75;101538.59;5121687;28;19942;-83
2021/09/25 04:30:14;;;;;;;;;;;;;;;24.70;50.76;101541.47;5139563;28;20010;-83
2021/09/25 04:32:39;;;;;;;;;;;;;;;24.48;51.56;101539.88;5138597;28;19958;-83
2021/09/25 04:35:05;;;;;;;;;;;;;;;24.33;51.33;101546.88;5120544;28;20413;-83
2021/09/25 04:37:30;;;;;;;;;;;;;;;24.97;49.60;101550.00;5120546;28;19919;-84
2021/09/25 04:39:55;;;;;;;;;;;;;;;24.78;50.45;101540.72;5120765;28;20331;-84
2021/09/25 04:42:20;;;;;;;;;;;;;;;24.28;52.43;101544.53;5120777;28;20013;-83
2021/09/25 04:44:45;;;;;;;;;;;;;;;25.17;49.83;101542.47;5115873;28;19920;-83
2021/09/25 04:47:11;;;;;;;;;;;;;;;24.97;50.44;101544.47;5117890;28;19923;-82
2021/09/25 04:49:36;;;;;;;;;;;;;;;23.82;53.08;101546.06;5115959;28;19916;-84
2021/09/25 04:52:01;;;;;;;;;;;;;;;25.16;50.05;101541.63;5114766;28;20027;-83
2021/09/25 04:54:26;;;;;;;;;;;;;;;24.21;52.68;101538.72;5116817;28;19931;-83
2021/09/25 04:56:52;;;;;;;;;;;;;;;23.99;53.40;101539.00;5119831;28;19916;-83
2021/09/25 04:59:17;;;;;;;;;;;;;;;24.55;51.47;101532.72;5119988;28;19915;-83
2021/09/25 05:01:42;;;;;;;;;;;;;;;25.22;50.43;101535.47;5118303;28;20281;-84
2021/09/25 05:04:10;;;;;;;;;;;;;;;24.61;51.97;101533.19;5120247;28;19923;-86
2021/09/25 05:06:35;;;;;;;;;;;;;;;25.21;50.04;101532.84;5121786;28;19916;-83
2021/09/25 05:09:00;;;;;;;;;;;;;;;24.54;52.49;101533.75;5121522;28;19916;-83
2021/09/25 05:11:25;;;;;;;;;;;;;;;23.91;54.31;101536.94;5121751;28;19916;-83
2021/09/25 05:13:51;;;;;;;;;;;;;;;25.09;50.45;101537.72;5123191;28;19922;-83
2021/09/25 05:16:16;;;;;;;;;;;;;;;24.96;50.64;101538.06;5124901;28;19937;-84
2021/09/25 05:18:42;;;;;;;;;;;;;;;24.44;52.16;101543.06;5125414;28;20674;-85
2021/09/25 05:21:07;;;;;;;;;;;;;;;24.22;53.95;101540.47;5125997;28;19919;-84
2021/09/25 05:23:33;;;;;;;;;;;;;;;24.54;52.72;101538.41;5126959;28;19937;-85
2021/09/25 05:25:58;;;;;;;;;;;;;;;23.80;55.22;101539.81;5124752;28;19915;-84
2021/09/25 05:28:23;;;;;;;;;;;;;;;24.28;53.39;101539.03;5123847;28;19916;-85
2021/09/25 05:30:48;;;;;;;;;;;;;;;24.86;52.52;101537.22;5124623;27;20026;-83
2021/09/25 05:33:14;;;;;;;;;;;;;;;24.64;52.52;101538.41;5123348;28;19916;-83
2021/09/25 05:35:39;;;;;;;;;;;;;;;24.69;52.10;101534.19;5121640;28;19983;-83
2021/09/25 05:38:04;;;;;;;;;;;;;;;24.18;53.60;101551.97;5122339;28;20358;-84
2021/09/25 05:40:30;;;;;;;;;;;;;;;24.72;53.02;101546.88;5121783;28;19920;-84
2021/09/25 05:42:55;;;;;;;;;;;;;;;24.54;53.44;101543.94;5121525;28;20344;-83
2021/09/25 05:45:20;;;;;;;;;;;;;;;24.97;52.25;101547.22;5120689;28;20010;-84
2021/09/25 05:47:46;;;;;;;;;;;;;;;24.73;52.95;101541.19;5121572;28;19916;-84
2021/09/25 05:50:12;;;;;;;;;;;;;;;24.74;52.61;101542.03;5121050;28;20249;-84
2021/09/25 05:52:37;;;;;;;;;;;;;;;24.90;51.81;101539.53;5122366;27;19916;-83
2021/09/25 05:55:03;;;;;;;;;;;;;;;24.94;51.82;101540.09;5120274;28;19985;-83
2021/09/25 05:57:29;;;;;;;;;;;;;;;24.71;52.12;101545.09;5120653;28;19922;-83
2021/09/25 05:59:54;;;;;;;;;;;;;;;24.90;51.54;101549.72;5118871;28;19923;-84
2021/09/25 06:02:19;;;;;;;;;;;;;;;24.59;52.45;101548.06;5119192;28;19927;-83
2021/09/25 06:04:44;;;;;;;;;;;;;;;24.73;52.51;101551.34;5118913;28;19915;-83
2021/09/25 06:07:11;;;;;;;;;;;;;;;24.37;52.95;101543.66;5118773;28;19955;-83
2021/09/25 06:09:37;;;;;;;;;;;;;;;24.54;53.06;101544.81;5118790;28;19916;-83
2021/09/25 06:12:02;;;;;;;;;;;;;;;24.84;52.23;101553.97;5120441;28;20026;-83
2021/09/25 06:14:27;;;;;;;;;;;;;;;24.49;52.98;101561.00;5120380;28;19977;-84
2021/09/25 06:16:53;;;;;;;;;;;;;;;24.03;54.21;101559.81;5119298;28;19916;-83
2021/09/25 06:19:18;;;;;;;;;;;;;;;24.14;54.42;101551.38;5119741;28;19962;-83
2021/09/25 06:21:43;;;;;;;;;;;;;;;24.68;52.16;101554.56;5118936;28;19919;-83
2021/09/25 06:24:08;;;;;;;;;;;;;;;24.59;53.12;101548.06;5119295;28;20006;-82
2021/09/25 06:26:34;;;;;;;;;;;;;;;24.61;52.04;101558.09;5119616;28;19998;-83
2021/09/25 06:28:59;;;;;;;;;;;;;;;24.49;53.27;101554.56;5118786;28;19916;-83
2021/09/25 06:31:24;;;;;;;;;;;;;;;24.94;51.85;101552.06;5119805;28;19965;-82
2021/09/25 06:33:49;;;;;;;;;;;;;;;24.70;52.64;101548.88;5121766;28;19941;-82
2021/09/25 06:36:15;;;;;;;;;;;;;;;24.34;53.88;101556.94;5119692;28;20258;-83
2021/09/25 06:38:40;;;;;;;;;;;;;;;23.70;55.66;101567.41;5120144;28;19940;-81
2021/09/25 06:41:06;;;;;;;;;;;;;;;24.29;54.02;101565.66;5120229;28;19922;-82
2021/09/25 06:43:31;;;;;;;;;;;;;;;24.48;53.75;101559.22;5121412;27;19919;-82
2021/09/25 06:45:56;;;;;;;;;;;;;;;24.64;53.22;101564.22;5122597;27;20017;-83
2021/09/25 06:48:22;;;;;;;;;;;;;;;24.88;52.06;101566.50;5140684;27;19927;-83
2021/09/25 06:50:47;;;;;;;;;;;;;;;25.01;51.73;101565.28;5140623;27;19937;-83
2021/09/25 06:53:12;;;;;;;;;;;;;;;24.91;51.67;101574.50;5140340;27;20038;-83
2021/09/25 06:55:37;;;;;;;;;;;;;;;25.44;50.48;101564.72;5120875;27;19923;-82
2021/09/25 06:58:05;;;;;;;;;;;;;;;25.30;50.93;101573.50;5119639;27;19922;-82
2021/09/25 07:00:30;;;;;;;;;;;;;;;25.51;50.25;101570.50;5118580;27;19998;-83
2021/09/25 07:02:55;;;;;;;;;;;;;;;24.75;52.12;101568.69;5137826;27;20000;-83
2021/09/25 07:05:20;;;;;;;;;;;;;;;24.04;54.44;101576.25;5103677;27;19919;-83
2021/09/25 07:07:46;;;;;;;;;;;;;;;24.85;52.38;101566.78;5138226;27;19921;-83
2021/09/25 07:10:14;;;;;;;;;;;;;;;24.50;53.54;101575.69;5137774;27;19912;-81
2021/09/25 07:12:39;;;;;;;;;;;;;;;24.25;53.66;101572.50;5119168;27;19916;-84
2021/09/25 07:15:04;;;;;;;;;;;;;;;25.21;52.00;101574.41;5119815;27;19915;-84
2021/09/25 07:17:30;;;;;;;;;;;;;;;24.39;55.24;101583.09;5118801;27;19919;-84
2021/09/25 07:19:55;;;;;;;;;;;;;;;23.87;56.61;101569.53;5124112;27;19923;-82
2021/09/25 07:22:20;;;;;;;;;;;;;;;24.79;54.05;101572.03;5125793;27;19940;-84
2021/09/25 07:24:45;;;;;;;;;;;;;;;24.61;54.76;101569.16;5129588;27;20336;-82
2021/09/25 07:27:11;;;;;;;;;;;;;;;24.82;54.13;101585.56;5127302;27;19983;-83
2021/09/25 07:29:36;;;;;;;;;;;;;;;25.81;51.29;101577.63;5126753;27;20384;-83
2021/09/25 07:32:01;;;;;;;;;;;;;;;24.92;53.02;101589.19;5126722;27;19922;-83
2021/09/25 07:34:27;;;;;;;;;;;;;;;25.22;52.67;101595.53;5125255;27;19919;-83
2021/09/25 07:36:53;;;;;;;;;;;;;;;25.25;52.44;101592.47;5147028;27;19915;-83
2021/09/25 07:39:18;;;;;;;;;;;;;;;25.04;52.84;101593.53;5127830;27;19919;-83
2021/09/25 07:41:43;;;;;;;;;;;;;;;25.54;51.98;101597.03;5133414;27;19918;-83
2021/09/25 07:44:08;;;;;;;;;;;;;;;25.43;52.01;101598.13;5123343;27;20425;-83
2021/09/25 07:46:34;;;;;;;;;;;;;;;25.97;49.54;101595.50;5126132;27;19955;-85
2021/09/25 07:49:02;;;;;;;;;;;;;;;25.70;50.99;101594.47;5122697;27;22111;-82
2021/09/25 07:51:27;;;;;;;;;;;;;;;26.30;49.18;101598.63;5122399;27;20456;-83
2021/09/25 07:53:53;;;;;;;;;;;;;;;26.81;47.74;101602.59;5122441;27;19937;-83
2021/09/25 07:56:18;;;;;;;;;;;;;;;26.35;49.06;101608.22;5123236;27;19979;-84
2021/09/25 07:58:43;;;;;;;;;;;;;;;25.32;51.67;101610.25;5130582;27;19919;-84
2021/09/25 08:01:09;;;;;;;;;;;;;;;25.13;53.08;101613.91;5124076;27;19915;-84
2021/09/25 08:03:34;;;;;;;;;;;;;;;25.74;50.90;101620.88;5122922;27;20005;-84
2021/09/25 08:05:59;;;;;;;;;;;;;;;24.40;54.80;101637.41;5132836;27;19942;-86
2021/09/25 08:08:24;;;;;;;;;;;;;;;24.87;54.30;101627.53;5133263;27;19965;-83
2021/09/25 08:10:49;;;;;;;;;;;;;;;25.81;51.93;101629.44;5124293;28;19942;-85
2021/09/25 08:13:15;;;;;;;;;;;;;;;24.69;54.44;101636.56;5128521;28;19994;-86
2021/09/25 08:15:41;;;;;;;;;;;;;;;24.57;55.22;101648.78;5134044;28;19919;-83
2021/09/25 08:18:06;;;;;;;;;;;;;;;25.43;52.48;101646.06;5137942;28;20009;-85
2021/09/25 08:20:31;;;;;;;;;;;;;;;24.65;55.16;101651.69;5131787;28;19927;-83
2021/09/25 08:22:57;;;;;;;;;;;;;;;24.96;54.33;101657.09;5121774;28;20372;-84
2021/09/25 08:25:22;;;;;;;;;;;;;;;25.04;53.90;101654.44;5125500;28;19927;-82
2021/09/25 08:27:47;;;;;;;;;;;;;;;24.34;56.14;101656.47;5128713;28;19924;-83
2021/09/25 08:30:13;;;;;;;;;;;;;;;25.01;53.86;101653.88;5126622;27;19916;-84
2021/09/25 08:32:39;;;;;;;;;;;;;;;24.95;53.63;101658.09;5129297;27;19916;-83
2021/09/25 08:35:07;;;;;;;;;;;;;;;25.37;52.16;101657.75;5129979;27;19947;-84
2021/09/25 08:37:32;;;;;;;;;;;;;;;25.50;51.59;101657.44;5135058;27;19916;-85
2021/09/25 08:39:57;;;;;;;;;;;;;;;24.65;54.39;101665.53;5132726;27;19915;-85
2021/09/25 08:42:23;;;;;;;;;;;;;;;25.78;51.26;101663.00;5127167;27;19922;-81
2021/09/25 08:44:50;;;;;;;;;;;;;;;25.43;51.42;101665.47;5136313;27;19920;-84
2021/09/25 08:47:16;;;;;;;;;;;;;;;25.23;52.56;101663.75;5134436;27;19958;-83
2021/09/25 08:49:41;;;;;;;;;;;;;;;26.00;50.54;101665.41;5130109;27;19920;-86
2021/09/25 08:52:07;;;;;;;;;;;;;;;26.64;48.04;101661.75;5125138;27;20295;-84
2021/09/25 08:54:33;;;;;;;;;;;;;;;25.52;51.22;101671.13;5132128;27;19920;-85
2021/09/25 08:56:58;;;;;;;;;;;;;;;24.58;54.00;101673.56;5125190;27;19927;-86
2021/09/25 08:59:23;;;;;;;;;;;;;;;25.79;51.14;101676.69;5118941;28;19916;-84
2021/09/25 09:01:48;;;;;;;;;;;;;;;25.96;50.84;101674.16;5118709;28;19951;-82
2021/09/25 09:04:14;;;;;;;;;;;;;;;26.86;47.50;101669.63;5120721;28;19923;-82
2021/09/25 09:06:39;;;;;;;;;;;;;;;26.76;47.99;101665.19;5119924;28;19915;-82
2021/09/25 09:09:09;;;;;;;;;;;;;;;27.24;46.24;101670.25;5128899;27;20261;-84
2021/09/25 09:11:39;;;;;;;;;;;;;;;25.82;49.83;101675.53;5118932;27;19991;-83
2021/09/25 09:14:04;;;;;;;;;;;;;;;25.97;49.77;101676.75;5120679;28;20026;-85
2021/09/25 09:16:30;;;;;;;;;;;;;;;25.72;50.55;101689.41;5120147;28;20055;-82
2021/09/25 09:18:56;;;;;;;;;;;;;;;27.10;46.81;101675.53;5118846;28;19916;-83
2021/09/25 09:21:29;;;;;;;;;;;;;;;27.18;46.16;101681.16;5120463;28;20373;-87
2021/09/25 09:23:58;;;;;;;;;;;;;;;26.90;47.87;101691.50;5121936;28;19920;-84
2021/09/25 09:26:25;;;;;;;;;;;;;;;27.95;44.79;101695.19;5120872;28;20334;-83
2021/09/25 09:28:52;;;;;;;;;;;;;;;28.00;44.18;101683.59;5119829;28;19919;-85
2021/09/25 09:31:18;;;;;;;;;;;;;;;26.88;47.14;101692.53;5119981;28;19916;-86
2021/09/25 09:33:43;;;;;;;;;;;;;;;26.90;47.06;101685.97;5121232;28;19916;-84
2021/09/25 09:36:11;;;;;;;;;;;;;;;27.15;46.29;101687.91;5119614;28;19916;-82
2021/09/25 09:38:41;;;;;;;;;;;;;;;27.35;45.79;101680.25;5124843;27;19919;-85
2021/09/25 09:41:06;;;;;;;;;;;;;;;27.76;44.67;101687.97;5127203;27;19955;-85
2021/09/25 09:43:32;;;;;;;;;;;;;;;27.79;44.52;101682.06;5119990;27;19969;-84
2021/09/25 09:45:57;;;;;;;;;;;;;;;26.71;47.12;101687.88;5122909;27;20014;-84
2021/09/25 09:48:23;;;;;;;;;;;;;;;26.31;48.34;101683.59;5138276;27;19926;-84
2021/09/25 09:50:50;;;;;;;;;;;;;;;28.02;44.53;101674.06;5153804;27;20014;-83
2021/09/25 09:53:16;;;;;;;;;;;;;;;27.76;44.55;101685.19;5137656;27;19915;-82
2021/09/25 09:55:41;;;;;;;;;;;;;;;27.45;45.33;101679.28;5125480;27;19926;-83
2021/09/25 09:58:07;;;;;;;;;;;;;;;27.57;45.26;101670.50;5122808;27;19919;-85
2021/09/25 10:00:33;;;;;;;;;;;;;;;28.45;43.00;101677.66;5120345;27;19919;-83
2021/09/25 10:02:59;;;;;;;;;;;;;;;28.46;43.15;101682.19;5120373;27;19956;-83
2021/09/25 10:05:24;;;;;;;;;;;;;;;29.86;39.48;101684.06;5122543;27;19962;-85
2021/09/25 10:07:50;;;;;;;;;;;;;;;27.88;43.89;101686.63;5125350;27;19939;-79
2021/09/25 10:10:15;;;;;;;;;;;;;;;28.48;42.90;101684.78;5151743;27;19953;-78
2021/09/25 10:12:40;;;;;;;;;;;;;;;29.08;41.38;101682.75;5160309;27;19979;-79
2021/09/25 10:15:06;;;;;;;;;;;;;;;28.90;41.89;101691.31;5140699;27;19916;-82
2021/09/25 10:17:31;;;;;;;;;;;;;;;27.79;44.44;101690.41;5120582;27;20300;-83
2021/09/25 10:19:57;;;;;;;;;;;;;;;27.54;45.21;101687.50;5120482;27;19983;-82
2021/09/25 10:22:24;;;;;;;;;;;;;;;28.40;43.24;101681.97;5120900;27;19916;-83
2021/09/25 10:24:56;;;;;;;;;;;;;;;27.54;45.78;101681.94;5139236;27;19973;-79
2021/09/25 10:27:25;;;;;;;;;;;;;;;27.87;43.98;101681.25;5141413;27;19923;-78
2021/09/25 10:29:51;;;;;;;;;;;;;;;27.38;45.79;101676.28;5121810;27;19919;-86
2021/09/25 10:32:19;;;;;;;;;;;;;;;27.89;44.61;101681.97;5123980;27;20010;-83
2021/09/25 10:34:54;;;;;;;;;;;;;;;27.07;46.42;101679.53;5141503;27;19968;-87
2021/09/25 10:37:20;;;;;;;;;;;;;;;27.77;45.07;101685.03;5131886;27;19972;-85
2021/09/25 10:39:55;;;;;;;;;;;;;;;28.01;44.09;101671.44;5153423;27;19923;-85
2021/09/25 10:42:21;;;;;;;;;;;;;;;28.73;42.33;101679.28;5142883;27;19923;-87
2021/09/25 10:44:51;;;;;;;;;;;;;;;28.61;42.43;101676.84;5145001;27;19923;-86
2021/09/25 10:47:21;;;;;;;;;;;;;;;29.08;41.01;101672.50;5131008;27;20380;-87
2021/09/25 10:49:51;;;;;;;;;;;;;;;28.90;41.78;101677.41;5117423;27;19916;-86
2021/09/25 10:52:18;;;;;;;;;;;;;;;28.38;43.13;101672.94;5129949;27;19915;-85
2021/09/25 10:54:44;;;;;;;;;;;;;;;28.32;42.94;101680.03;5141471;27;20349;-87
2021/09/25 10:57:29;;;;;;;;;;;;;;;28.53;42.71;101675.94;5142068;27;19930;-84
2021/09/25 11:00:14;;;;;;;;;;;;;;;27.63;44.88;101679.19;5142120;27;19915;-84
2021/09/25 11:02:41;;;;;;;;;;;;;;;27.86;44.40;101672.03;5137927;27;19959;-84
2021/09/25 11:05:06;;;;;;;;;;;;;;;28.50;42.81;101671.56;5125171;27;19919;-85
2021/09/25 11:07:36;;;;;;;;;;;;;;;28.34;43.14;101665.97;5141779;27;19915;-83
2021/09/25 11:10:02;;;;;;;;;;;;;;;28.25;43.10;101671.53;5128581;27;19923;-83
2021/09/25 11:12:41;;;;;;;;;;;;;;;27.21;45.90;101673.34;5143622;27;19924;-84
2021/09/25 11:15:27;;;;;;;;;;;;;;;27.43;45.56;101670.25;5134860;27;19962;-81
2021/09/25 11:18:12;;;;;;;;;;;;;;;27.45;45.69;101665.38;5139200;27;19961;-84
2021/09/25 11:20:37;;;;;;;;;;;;;;;27.03;47.02;101661.44;5122470;27;19947;-83
2021/09/25 11:23:02;;;;;;;;;;;;;;;28.03;44.38;101669.34;5119730;27;19920;-82
2021/09/25 11:25:29;;;;;;;;;;;;;;;28.35;43.14;101674.13;5150123;27;20021;-80
2021/09/25 11:27:56;;;;;;;;;;;;;;;29.07;42.05;101667.13;5156897;27;19926;-84
2021/09/25 11:30:25;;;;;;;;;;;;;;;29.28;41.41;101664.66;5122237;27;19926;-77
2021/09/25 11:33:01;;;;;;;;;;;;;;;28.67;41.84;101666.06;5146882;27;19915;-83
2021/09/25 11:35:28;;;;;;;;;;;;;;;28.38;42.40;101672.94;5158636;27;20010;-79
2021/09/25 11:37:56;;;;;;;;;;;;;;;29.14;41.02;101665.38;5151255;27;19919;-83
2021/09/25 11:40:23;;;;;;;;;;;;;;;29.07;41.28;101667.13;5137008;27;19915;-83
2021/09/25 11:42:48;;;;;;;;;;;;;;;28.95;41.93;101673.03;5137012;27;20349;-84
2021/09/25 11:45:17;;;;;;;;;;;;;;;26.99;45.50;101669.19;5118612;27;19919;-77
2021/09/25 11:47:44;;;;;;;;;;;;;;;28.16;43.35;101666.97;5117983;27;20292;-79
2021/09/25 11:50:12;;;;;;;;;;;;;;;27.76;43.98;101668.50;5152903;27;19919;-81
2021/09/25 11:52:38;;;;;;;;;;;;;;;28.23;43.55;101672.72;5120471;27;19926;-81
2021/09/25 11:55:04;;;;;;;;;;;;;;;28.79;42.16;101664.66;5137679;27;19925;-81
2021/09/25 11:57:29;;;;;;;;;;;;;;;29.29;40.83;101665.53;5119110;27;19920;-80
2021/09/25 11:59:55;;;;;;;;;;;;;;;28.29;43.08;101664.59;5137420;27;19922;-79
2021/09/25 12:02:38;;;;;;;;;;;;;;;28.64;42.31;101662.59;5120408;27;19923;-81
2021/09/25 12:05:05;;;;;;;;;;;;;;;28.27;43.26;101657.44;5139300;27;20561;-78
2021/09/25 12:07:44;;;;;;;;;;;;;;;28.45;42.76;101651.72;5139226;27;19915;-79
2021/09/25 12:10:20;;;;;;;;;;;;;;;29.07;41.56;101655.97;5149406;27;19964;-78
2021/09/25 12:12:45;;;;;;;;;;;;;;;28.56;42.19;101645.81;5157530;27;19921;-81
2021/09/25 12:15:11;;;;;;;;;;;;;;;28.03;43.64;101647.97;5157768;27;19958;-80
2021/09/25 12:17:37;;;;;;;;;;;;;;;28.91;41.57;101646.59;5155806;27;19937;-80
2021/09/25 12:20:15;;;;;;;;;;;;;;;28.86;41.18;101654.56;5142671;27;19926;-79
2021/09/25 12:22:44;;;;;;;;;;;;;;;29.04;41.09;101647.97;5136554;28;19926;-80
2021/09/25 12:25:10;;;;;;;;;;;;;;;28.13;43.52;101636.72;5117844;28;19919;-78
2021/09/25 12:27:41;;;;;;;;;;;;;;;28.99;41.83;101632.63;5117566;28;19982;-79
2021/09/25 12:30:07;;;;;;;;;;;;;;;28.67;42.55;101638.22;5118846;28;19926;-79